createdAt,value
2019-04-01T00:01:23.796Z,31.00
2019-04-01T00:03:49.830Z,29.20
2019-04-01T00:06:15.974Z,28.95
2019-04-01T00:08:41.784Z,31.48
2019-04-01T00:11:07.869Z,31.00
2019-04-01T00:13:33.700Z,30.35
2019-04-01T00:15:59.829Z,29.00
2019-04-01T00:18:28.662Z,31.05
2019-04-01T00:20:54.719Z,30.45
2019-04-01T00:23:23.601Z,31.02
2019-04-01T00:25:49.392Z,29.65
2019-04-01T00:28:18.474Z,29.90
2019-04-01T00:30:44.284Z,29.67
2019-04-01T00:33:10.108Z,30.77
2019-04-01T00:35:35.890Z,31.63
2019-04-01T00:38:01.671Z,30.37
2019-04-01T00:40:30.957Z,31.50
2019-04-01T00:43:07.654Z,30.90
2019-04-01T00:45:35.378Z,30.62
2019-04-01T00:48:01.683Z,30.75
2019-04-01T00:50:27.486Z,29.32
2019-04-01T00:52:53.284Z,30.63
2019-04-01T00:55:19.102Z,31.73
2019-04-01T00:57:44.885Z,31.83
2019-04-01T01:00:12.323Z,31.77
2019-04-01T01:02:38.393Z,31.45
2019-04-01T01:05:04.609Z,31.05
2019-04-01T01:07:30.739Z,30.97
2019-04-01T01:09:56.831Z,31.35
2019-04-01T01:12:22.623Z,30.90
2019-04-01T01:14:48.449Z,31.80
2019-04-01T01:17:17.660Z,31.93
2019-04-01T01:19:43.523Z,32.05
2019-04-01T01:22:09.379Z,28.67
2019-04-01T01:24:35.181Z,32.23
2019-04-01T01:27:04.696Z,31.03
2019-04-01T01:29:30.511Z,31.50
2019-04-01T01:31:59.196Z,34.30
2019-04-01T01:34:25.270Z,29.95
2019-04-01T01:36:54.115Z,32.33
2019-04-01T01:39:19.914Z,31.55
2019-04-01T01:41:48.712Z,30.90
2019-04-01T01:44:14.512Z,30.75
2019-04-01T01:46:40.313Z,31.27
2019-04-01T01:49:06.137Z,30.10
2019-04-01T01:51:31.924Z,33.77
2019-04-01T01:54:00.753Z,31.60
2019-04-01T01:56:26.528Z,32.25
2019-04-01T01:58:55.154Z,32.90
2019-04-01T02:01:20.984Z,32.25
2019-04-01T02:03:49.516Z,33.63
2019-04-01T02:06:15.606Z,32.93
2019-04-01T02:08:46.385Z,30.97
2019-04-01T02:11:12.185Z,33.38
2019-04-01T02:13:41.297Z,29.60
2019-04-01T02:16:07.138Z,30.77
2019-04-01T02:18:35.981Z,30.67
2019-04-01T02:21:02.042Z,34.08
2019-04-01T02:23:28.094Z,32.42
2019-04-01T02:25:53.938Z,31.23
2019-04-01T02:28:19.747Z,32.20
2019-04-01T02:30:45.815Z,29.90
2019-04-01T02:33:11.630Z,31.35
2019-04-01T02:35:40.302Z,31.90
2019-04-01T02:38:06.390Z,29.67
2019-04-01T02:40:36.938Z,30.15
2019-04-01T02:43:02.749Z,29.80
2019-04-01T02:45:31.727Z,30.67
2019-04-01T02:47:57.589Z,30.52
2019-04-01T02:50:24.087Z,30.73
2019-04-01T02:52:49.910Z,31.27
2019-04-01T02:55:18.498Z,32.80
2019-04-01T02:57:44.281Z,33.58
2019-04-01T03:00:10.207Z,31.60
2019-04-01T03:02:35.991Z,32.93
2019-04-01T03:05:01.948Z,30.33
2019-04-01T03:07:33.124Z,29.77
2019-04-01T03:09:58.924Z,30.68
2019-04-01T03:12:28.011Z,32.13
2019-04-01T03:14:53.846Z,33.40
2019-04-01T03:17:22.704Z,30.70
2019-04-01T03:19:48.489Z,34.27
2019-04-01T03:24:40.983Z,33.63
2019-04-01T03:27:10.414Z,29.33
2019-04-01T03:29:36.250Z,30.95
2019-04-01T03:32:04.283Z,30.30
2019-04-01T03:34:30.053Z,31.62
2019-04-01T03:36:55.876Z,30.70
2019-04-01T03:39:21.693Z,32.33
2019-04-01T03:41:47.489Z,31.50
2019-04-01T03:44:16.222Z,30.47
2019-04-01T03:46:42.050Z,32.03
2019-04-01T03:49:10.913Z,35.43
2019-04-01T03:51:36.753Z,32.05
2019-04-01T03:54:05.649Z,33.20
2019-04-01T03:56:31.430Z,31.80
2019-04-01T03:59:00.039Z,31.13
2019-04-01T04:01:30.004Z,29.23
2019-04-01T04:03:56.071Z,29.67
2019-04-01T04:06:22.084Z,27.93
2019-04-01T04:08:50.913Z,29.50
2019-04-01T04:11:16.733Z,27.48
2019-04-01T04:13:42.594Z,29.87
2019-04-01T04:16:08.415Z,29.50
2019-04-01T04:18:34.238Z,29.23
2019-04-01T04:21:01.786Z,29.67
2019-04-01T04:23:27.643Z,29.50
2019-04-01T04:25:56.335Z,29.63
2019-04-01T04:28:22.433Z,30.60
2019-04-01T04:30:53.163Z,28.67
2019-04-01T04:33:19.282Z,31.20
2019-04-01T04:35:48.474Z,32.05
2019-04-01T04:38:14.396Z,29.25
2019-04-01T04:40:41.157Z,32.37
2019-04-01T04:43:07.131Z,28.50
2019-04-01T04:45:36.246Z,28.47
2019-04-01T04:48:02.373Z,29.50
2019-04-01T04:50:28.225Z,31.90
2019-04-01T04:52:54.298Z,27.57
2019-04-01T04:55:20.416Z,29.15
2019-04-01T04:57:49.317Z,31.93
2019-04-01T05:00:15.136Z,31.15
2019-04-01T05:02:44.348Z,29.47
2019-04-01T05:05:10.445Z,30.25
2019-04-01T05:07:36.674Z,31.37
2019-04-01T05:10:05.296Z,30.52
2019-04-01T05:12:31.099Z,29.00
2019-04-01T05:14:57.017Z,31.73
2019-04-01T05:17:25.029Z,28.50
2019-04-01T05:19:51.235Z,32.20
2019-04-01T05:22:20.157Z,32.85
2019-04-01T05:24:46.085Z,31.87
2019-04-01T05:27:12.600Z,30.90
2019-04-01T05:29:38.910Z,28.90
2019-04-01T05:32:04.893Z,28.25
2019-04-01T05:34:34.689Z,29.95
2019-04-01T05:37:00.491Z,29.37
2019-04-01T05:39:29.073Z,31.47
2019-04-01T05:41:54.871Z,31.62
2019-04-01T05:44:23.741Z,31.63
2019-04-01T05:46:49.850Z,30.68
2019-04-01T05:49:19.016Z,30.25
2019-04-01T05:51:44.793Z,29.92
2019-04-01T05:54:13.786Z,32.50
2019-04-01T05:56:39.875Z,34.35
2019-04-01T05:59:05.661Z,36.65
2019-04-01T06:01:36.435Z,30.87
2019-04-01T06:04:03.155Z,34.33
2019-04-01T06:06:29.269Z,30.45
2019-04-01T06:08:55.160Z,32.38
2019-04-01T06:11:20.932Z,32.03
2019-04-01T06:13:47.011Z,31.90
2019-04-01T06:16:13.106Z,32.48
2019-04-01T06:18:39.196Z,30.88
2019-04-01T06:21:29.813Z,31.70
2019-04-01T06:23:55.724Z,30.23
2019-04-01T06:26:21.506Z,30.73
2019-04-01T06:28:47.297Z,30.70
2019-04-01T06:31:13.226Z,30.40
2019-04-01T06:36:19.493Z,31.30
2019-04-01T06:38:45.288Z,31.37
2019-04-01T06:41:11.105Z,33.40
2019-04-01T06:43:36.993Z,30.60
2019-04-01T06:46:02.969Z,31.73
2019-04-01T06:48:28.890Z,31.03
2019-04-01T06:50:55.079Z,32.07
2019-04-01T06:53:21.174Z,30.15
2019-04-01T06:55:47.010Z,33.45
2019-04-01T06:58:12.935Z,32.00
2019-04-01T07:00:38.722Z,33.40
2019-04-01T07:03:04.672Z,32.50
2019-04-01T07:05:30.686Z,31.33
2019-04-01T07:07:57.087Z,34.15
2019-04-01T07:10:24.827Z,35.63
2019-04-01T07:12:50.716Z,32.33
2019-04-01T07:15:16.509Z,32.63
2019-04-01T07:17:42.303Z,31.20
2019-04-01T07:20:09.181Z,30.40
2019-04-01T07:22:36.504Z,32.53
2019-04-01T07:25:02.923Z,30.33
2019-04-01T07:27:29.232Z,30.40
2019-04-01T07:29:55.066Z,32.57
2019-04-01T07:32:20.858Z,32.40
2019-04-01T07:34:46.647Z,30.67
2019-04-01T07:37:12.574Z,30.23
2019-04-01T07:39:38.703Z,32.20
2019-04-01T07:42:04.618Z,31.15
2019-04-01T07:44:30.769Z,32.97
2019-04-01T07:46:56.799Z,31.77
2019-04-01T07:49:22.648Z,31.20
2019-04-01T07:51:48.476Z,31.33
2019-04-01T07:54:18.309Z,32.43
2019-04-01T07:56:42.506Z,29.43
2019-04-01T07:59:08.608Z,33.13
2019-04-01T08:01:34.497Z,31.27
2019-04-01T08:04:00.783Z,31.97
2019-04-01T08:06:28.556Z,34.63
2019-04-01T08:08:54.722Z,33.13
2019-04-01T08:11:22.976Z,31.23
2019-04-01T08:13:48.905Z,33.00
2019-04-01T08:16:18.050Z,32.10
2019-04-01T08:18:44.123Z,32.67
2019-04-01T08:21:12.195Z,35.87
2019-04-01T08:23:38.252Z,33.20
2019-04-01T08:26:08.647Z,32.90
2019-04-01T08:28:34.704Z,31.50
2019-04-01T08:31:00.524Z,32.63
2019-04-01T08:33:26.612Z,31.70
2019-04-01T08:35:52.800Z,29.13
2019-04-01T08:38:18.643Z,33.40
2019-04-01T08:40:44.698Z,30.50
2019-04-01T08:43:13.649Z,33.70
2019-04-01T08:45:39.756Z,32.03
2019-04-01T08:48:09.577Z,33.30
2019-04-01T08:50:35.908Z,33.08
2019-04-01T08:53:04.759Z,34.20
2019-04-01T08:55:30.583Z,32.00
2019-04-01T08:57:57.592Z,31.30
2019-04-01T09:00:23.633Z,31.90
2019-04-01T09:02:52.795Z,33.87
2019-04-01T09:05:18.605Z,31.70
2019-04-01T09:07:44.584Z,34.27
2019-04-01T09:10:10.636Z,31.00
2019-04-01T09:12:36.440Z,33.00
2019-04-01T09:15:05.576Z,31.87
2019-04-01T09:17:31.650Z,29.13
2019-04-01T09:19:59.118Z,33.20
2019-04-01T09:22:24.912Z,31.27
2019-04-01T09:24:55.628Z,32.13
2019-04-01T09:27:21.702Z,32.47
2019-04-01T09:29:50.593Z,31.10
2019-04-01T09:32:16.611Z,33.60
2019-04-01T09:34:45.448Z,31.37
2019-04-01T09:37:11.264Z,30.80
2019-04-01T09:39:37.460Z,31.07
2019-04-01T09:42:03.564Z,31.47
2019-04-01T09:44:36.780Z,30.83
2019-04-01T09:46:57.090Z,31.87
2019-04-01T09:49:22.916Z,32.63
2019-04-01T09:51:52.001Z,31.70
2019-04-01T09:54:17.813Z,29.20
2019-04-01T09:56:46.945Z,30.67
2019-04-01T09:59:12.791Z,32.50
2019-04-01T10:01:38.881Z,32.10
2019-04-01T10:04:05.073Z,34.20
2019-04-01T10:06:36.321Z,30.23
2019-04-01T10:09:05.227Z,30.80
2019-04-01T10:11:31.056Z,30.60
2019-04-01T10:13:56.883Z,30.37
2019-04-01T10:16:26.381Z,29.87
2019-04-01T10:18:51.026Z,30.77
2019-04-01T10:21:16.823Z,31.43
2019-04-01T10:23:42.626Z,29.90
2019-04-01T10:26:08.460Z,27.50
2019-04-01T10:28:37.281Z,31.20
2019-04-01T10:31:03.426Z,28.23
2019-04-01T10:33:29.252Z,30.50
2019-04-01T10:35:55.051Z,31.90
2019-04-01T10:38:24.433Z,27.47
2019-04-01T10:40:50.238Z,30.73
2019-04-01T10:43:21.169Z,30.40
2019-04-01T10:45:47.265Z,31.40
2019-04-01T10:48:16.341Z,56.90
2019-04-01T10:50:42.154Z,83.73
2019-04-01T10:53:08.103Z,30.40
2019-04-01T10:55:33.924Z,29.47
2019-04-01T10:57:59.805Z,29.83
2019-04-01T11:00:26.415Z,27.80
2019-04-01T11:02:52.166Z,29.03
2019-04-01T11:05:20.910Z,29.80
2019-04-01T11:07:46.770Z,30.43
2019-04-01T11:10:16.227Z,30.23
2019-04-01T11:12:42.033Z,29.73
2019-04-01T11:15:10.968Z,29.10
2019-04-01T11:17:37.302Z,27.13
2019-04-01T11:20:06.105Z,28.90
2019-04-01T11:22:32.958Z,30.83
2019-04-01T11:24:58.774Z,28.17
2019-04-01T11:27:24.567Z,28.67
2019-04-01T11:29:53.249Z,29.67
2019-04-01T11:32:19.082Z,29.87
2019-04-01T11:34:44.950Z,28.60
2019-04-01T11:37:10.772Z,26.87
2019-04-01T11:39:37.008Z,27.40
2019-04-01T11:42:05.585Z,25.90
2019-04-01T11:44:31.481Z,26.20
2019-04-01T11:47:02.067Z,28.00
2019-04-01T11:49:28.583Z,26.50
2019-04-01T11:51:57.158Z,26.37
2019-04-01T11:54:23.036Z,27.17
2019-04-01T11:56:51.661Z,27.97
2019-04-01T11:59:25.972Z,27.40
2019-04-01T12:01:51.793Z,27.43
2019-04-01T12:04:17.692Z,28.30
2019-04-01T12:06:43.766Z,27.90
2019-04-01T12:09:09.588Z,25.93
2019-04-01T12:11:35.403Z,23.87
2019-04-01T12:14:04.927Z,23.10
2019-04-01T12:16:29.203Z,22.37
2019-04-01T12:18:54.987Z,24.10
2019-04-01T12:21:20.920Z,21.47
2019-04-01T12:23:46.993Z,22.00
2019-04-01T12:26:15.428Z,26.20
2019-04-01T12:28:40.786Z,24.27
2019-04-01T12:31:06.730Z,23.47
2019-04-01T12:33:35.298Z,23.50
2019-04-01T12:36:01.349Z,33.87
2019-04-01T12:38:31.095Z,33.20
2019-04-01T12:40:56.915Z,24.83
2019-04-01T12:43:25.476Z,26.00
2019-04-01T12:45:51.547Z,24.13
2019-04-01T12:48:17.333Z,26.10
2019-04-01T12:50:43.240Z,25.13
2019-04-01T12:53:09.299Z,27.07
2019-04-01T12:55:38.204Z,25.80
2019-04-01T12:58:04.104Z,24.13
2019-04-01T13:00:33.206Z,24.03
2019-04-01T13:02:59.317Z,25.47
2019-04-01T13:05:25.178Z,22.10
2019-04-01T13:07:54.134Z,23.67
2019-04-01T13:10:20.363Z,23.23
2019-04-01T13:12:46.762Z,21.97
2019-04-01T13:15:15.694Z,21.47
2019-04-01T13:17:41.781Z,23.57
2019-04-01T13:20:10.957Z,22.00
2019-04-01T13:22:38.168Z,23.23
2019-04-01T13:25:05.732Z,21.80
2019-04-01T13:27:32.069Z,21.13
2019-04-01T13:29:58.127Z,21.73
2019-04-01T13:32:23.919Z,22.50
2019-04-01T13:34:49.739Z,21.47
2019-04-01T13:37:18.697Z,23.70
2019-04-01T13:39:44.488Z,22.53
2019-04-01T13:42:14.545Z,22.50
2019-04-01T13:44:40.505Z,22.53
2019-04-01T13:47:06.334Z,23.00
2019-04-01T13:49:32.396Z,21.37
2019-04-01T13:52:03.661Z,15.90
2019-04-01T13:54:29.295Z,19.10
2019-04-01T13:56:55.108Z,17.20
2019-04-01T13:59:20.918Z,19.40
2019-04-01T14:01:46.746Z,20.30
2019-04-01T14:04:13.040Z,17.23
2019-04-01T14:06:38.851Z,17.10
2019-04-01T14:09:08.366Z,18.20
2019-04-01T14:11:34.188Z,17.00
2019-04-01T14:14:01.247Z,19.03
2019-04-01T14:16:27.321Z,19.63
2019-04-01T14:18:56.523Z,19.30
2019-04-01T14:21:23.371Z,19.13
2019-04-01T14:23:52.166Z,17.90
2019-04-01T14:26:17.959Z,16.43
2019-04-01T14:28:46.565Z,17.47
2019-04-01T14:31:12.352Z,17.70
2019-04-01T14:33:40.980Z,18.47
2019-04-01T14:36:06.796Z,21.50
2019-04-01T14:38:32.876Z,19.53
2019-04-01T14:40:58.898Z,19.80
2019-04-01T14:43:24.707Z,16.93
2019-04-01T14:45:53.807Z,17.30
2019-04-01T14:48:19.636Z,18.10
2019-04-01T14:50:47.021Z,17.07
2019-04-01T14:53:13.113Z,17.03
2019-04-01T14:55:41.688Z,17.23
2019-04-01T14:58:07.468Z,17.10
2019-04-01T15:00:38.153Z,16.20
2019-04-01T15:03:03.948Z,16.57
2019-04-01T15:05:32.974Z,16.13
2019-04-01T15:07:58.799Z,15.27
2019-04-01T15:10:27.552Z,16.67
2019-04-01T15:13:04.329Z,15.60
2019-04-01T15:15:21.079Z,16.50
2019-04-01T15:17:47.283Z,17.37
2019-04-01T15:20:13.639Z,16.50
2019-04-01T15:22:39.407Z,17.03
2019-04-01T15:25:06.155Z,15.70
2019-04-01T15:27:32.714Z,15.67
2019-04-01T15:29:59.381Z,17.90
2019-04-01T15:32:28.010Z,17.07
2019-04-01T15:34:53.819Z,14.70
2019-04-01T15:37:23.203Z,15.00
2019-04-01T15:39:49.660Z,17.20
2019-04-01T15:42:15.907Z,16.00
2019-04-01T15:44:42.019Z,15.80
2019-04-01T15:47:10.692Z,15.50
2019-04-01T15:49:36.519Z,15.60
2019-04-01T15:52:02.350Z,15.60
2019-04-01T15:54:28.429Z,16.33
2019-04-01T15:56:54.229Z,14.50
2019-04-01T15:59:23.333Z,15.90
2019-04-01T16:01:49.107Z,17.43
2019-04-01T16:04:17.999Z,16.13
2019-04-01T16:06:43.792Z,14.97
2019-04-01T16:09:13.591Z,15.33
2019-04-01T16:11:39.373Z,14.17
2019-04-01T16:14:08.491Z,14.00
2019-04-01T16:16:36.068Z,13.90
2019-04-01T16:19:02.101Z,14.37
2019-04-01T16:21:31.273Z,14.70
2019-04-01T16:23:58.675Z,13.13
2019-04-01T16:26:24.483Z,15.27
2019-04-01T16:28:50.281Z,14.20
2019-04-01T16:31:16.372Z,14.37
2019-04-01T16:33:42.456Z,14.00
2019-04-01T16:36:08.363Z,13.20
2019-04-01T16:38:34.184Z,13.23
2019-04-01T16:41:05.143Z,14.83
2019-04-01T16:43:31.080Z,14.17
2019-04-01T16:45:59.893Z,13.07
2019-04-01T16:48:25.867Z,14.47
2019-04-01T16:50:51.778Z,15.33
2019-04-01T16:53:17.878Z,14.97
2019-04-01T16:55:48.333Z,14.63
2019-04-01T16:58:14.229Z,13.37
2019-04-01T17:00:43.477Z,13.37
2019-04-01T17:03:09.288Z,26.83
2019-04-01T17:05:35.499Z,26.00
2019-04-01T17:08:01.684Z,15.53
2019-04-01T17:10:27.894Z,14.20
2019-04-01T17:12:53.706Z,13.70
2019-04-01T17:15:21.172Z,13.97
2019-04-01T17:17:50.190Z,14.90
2019-04-01T17:20:16.006Z,15.77
2019-04-01T17:22:44.754Z,13.87
2019-04-01T17:25:10.787Z,15.33
2019-04-01T17:27:39.887Z,16.60
2019-04-01T17:30:07.723Z,15.03
2019-04-01T17:32:33.540Z,16.00
2019-04-01T17:34:59.605Z,15.50
2019-04-01T17:37:26.747Z,15.70
2019-04-01T17:39:52.825Z,14.33
2019-04-01T17:42:19.046Z,15.77
2019-04-01T17:44:44.840Z,14.80
2019-04-01T17:47:11.000Z,16.80
2019-04-01T17:49:39.796Z,15.73
2019-04-01T17:52:05.920Z,15.27
2019-04-01T17:54:34.789Z,15.33
2019-04-01T17:57:00.848Z,16.00
2019-04-01T17:59:28.016Z,15.97
2019-04-01T18:01:56.905Z,14.60
2019-04-01T18:04:25.411Z,15.00
2019-04-01T18:06:51.272Z,15.33
2019-04-01T18:09:17.469Z,15.33
2019-04-01T18:11:43.269Z,13.90
2019-04-01T18:14:11.564Z,15.30
2019-04-01T18:16:37.358Z,14.90
2019-04-01T18:19:03.481Z,15.57
2019-04-01T18:21:29.290Z,14.93
2019-04-01T18:23:55.162Z,15.63
2019-04-01T18:26:23.770Z,14.60
2019-04-01T18:28:49.597Z,14.70
2019-04-01T18:31:19.904Z,15.23
2019-04-01T18:33:56.022Z,14.20
2019-04-01T18:36:13.687Z,15.87
2019-04-01T18:38:41.077Z,14.40
2019-04-01T18:41:08.739Z,15.87
2019-04-01T18:43:34.551Z,14.43
2019-04-01T18:46:03.417Z,15.77
2019-04-01T18:48:29.525Z,15.03
2019-04-01T18:50:58.624Z,14.70
2019-04-01T18:53:24.744Z,14.33
2019-04-01T18:55:52.831Z,14.50
2019-04-01T18:58:18.571Z,16.03
2019-04-01T19:00:44.669Z,15.13
2019-04-01T19:03:10.666Z,13.53
2019-04-01T19:05:37.082Z,13.73
2019-04-01T19:08:06.187Z,12.90
2019-04-01T19:10:32.023Z,13.83
2019-04-01T19:13:06.056Z,14.00
2019-04-01T19:15:29.723Z,14.23
2019-04-01T19:17:56.099Z,16.63
2019-04-01T19:20:22.012Z,15.20
2019-04-01T19:22:48.200Z,15.30
2019-04-01T19:25:14.124Z,14.70
2019-04-01T19:27:43.016Z,13.87
2019-04-01T19:30:09.451Z,14.70
2019-04-01T19:32:35.240Z,13.77
2019-04-01T19:35:01.059Z,14.00
2019-04-01T19:37:27.314Z,15.23
2019-04-01T19:39:56.622Z,15.50
2019-04-01T19:42:22.424Z,14.17
2019-04-01T19:44:51.022Z,15.67
2019-04-01T19:47:17.124Z,13.20
2019-04-01T19:49:45.969Z,14.40
2019-04-01T19:52:11.778Z,13.93
2019-04-01T19:54:40.341Z,16.30
2019-04-01T19:57:06.153Z,13.17
2019-04-01T19:59:35.676Z,13.27
2019-04-01T20:02:01.332Z,16.50
2019-04-01T20:04:30.304Z,14.53
2019-04-01T20:06:56.179Z,13.50
2019-04-01T20:09:22.002Z,14.10
2019-04-01T20:11:48.075Z,13.80
2019-04-01T20:14:13.904Z,16.23
2019-04-01T20:16:40.175Z,15.30
2019-04-01T20:19:06.915Z,13.53
2019-04-01T20:21:35.502Z,16.40
2019-04-01T20:24:01.627Z,14.25
2019-04-01T20:26:30.456Z,14.57
2019-04-01T20:28:56.302Z,15.20
2019-04-01T20:31:24.865Z,15.30
2019-04-01T20:33:50.917Z,16.00
2019-04-01T20:36:28.343Z,14.80
2019-04-01T20:38:47.788Z,14.53
2019-04-01T20:41:13.594Z,15.72
2019-04-01T20:43:39.420Z,16.30
2019-04-01T20:46:05.212Z,15.03
2019-04-01T20:48:31.034Z,14.70
2019-04-01T20:50:57.571Z,15.23
2019-04-01T20:53:25.204Z,14.80
2019-04-01T20:55:51.323Z,14.87
2019-04-01T20:58:20.146Z,15.70
2019-04-01T21:00:45.979Z,15.53
2019-04-01T21:03:14.848Z,15.87
2019-04-01T21:05:40.776Z,16.55
2019-04-01T21:08:11.186Z,17.70
2019-04-01T21:10:37.042Z,17.20
2019-04-01T21:13:06.045Z,16.93
2019-04-01T21:15:32.389Z,17.02
2019-04-01T21:18:01.135Z,19.20
2019-04-01T21:20:26.945Z,18.80
2019-04-01T21:22:52.773Z,18.93
2019-04-01T21:25:18.885Z,19.80
2019-04-01T21:27:44.703Z,21.77
2019-04-01T21:30:11.192Z,20.67
2019-04-01T21:32:37.016Z,20.75
2019-04-01T21:35:06.172Z,22.40
2019-04-01T21:37:31.977Z,20.55
2019-04-01T21:40:01.153Z,20.63
2019-04-01T21:42:26.956Z,21.60
2019-04-01T21:44:55.808Z,24.07
2019-04-01T21:47:21.890Z,23.42
2019-04-01T21:49:50.734Z,22.70
2019-04-01T21:52:16.887Z,21.07
2019-04-01T21:54:44.158Z,20.85
2019-04-01T21:57:09.976Z,19.82
2019-04-01T21:59:36.046Z,20.83
2019-04-01T22:02:03.006Z,20.85
2019-04-01T22:04:28.792Z,23.27
2019-04-01T22:06:55.859Z,21.73
2019-04-01T22:09:21.666Z,22.60
2019-04-01T22:11:52.615Z,22.83
2019-04-01T22:14:18.710Z,21.55
2019-04-01T22:16:48.195Z,23.12
2019-04-01T22:19:14.372Z,22.73
2019-04-01T22:21:40.784Z,23.60
2019-04-01T22:24:06.597Z,23.83
2019-04-01T22:26:34.561Z,23.80
2019-04-01T22:29:00.406Z,23.20
2019-04-01T22:31:31.257Z,22.40
2019-04-01T22:33:57.107Z,23.57
2019-04-01T22:36:30.985Z,22.07
2019-04-01T22:38:50.618Z,22.30
2019-04-01T22:41:16.416Z,23.10
2019-04-01T22:43:42.219Z,22.40
2019-04-01T22:46:08.281Z,23.77
2019-04-01T22:48:37.158Z,23.05
2019-04-01T22:51:03.368Z,23.65
2019-04-01T22:53:33.312Z,21.30
2019-04-01T22:55:59.460Z,23.20
2019-04-01T22:58:25.284Z,23.20
2019-04-01T23:00:51.101Z,24.47
2019-04-01T23:03:19.844Z,20.37
2019-04-01T23:05:45.674Z,21.25
2019-04-01T23:08:14.214Z,20.80
2019-04-01T23:10:40.319Z,20.77
2019-04-01T23:13:06.183Z,17.73
2019-04-01T23:15:32.256Z,19.20
2019-04-01T23:17:58.100Z,22.30
2019-04-01T23:20:28.450Z,19.57
2019-04-01T23:22:54.247Z,18.00
2019-04-01T23:25:21.515Z,18.50
2019-04-01T23:27:47.337Z,20.35
2019-04-01T23:30:17.866Z,21.13
2019-04-01T23:32:45.176Z,21.35
2019-04-01T23:35:12.547Z,21.05
2019-04-01T23:37:38.762Z,21.25
2019-04-01T23:40:07.658Z,24.30
2019-04-01T23:42:33.437Z,22.75
2019-04-01T23:45:04.449Z,23.07
2019-04-01T23:47:30.546Z,21.25
2019-04-01T23:49:56.366Z,25.40
2019-04-01T23:52:22.204Z,21.80
2019-04-01T23:54:48.045Z,23.80
2019-04-01T23:57:14.154Z,24.43
2019-04-01T23:59:40.068Z,25.35
